createdAt,value
2018-12-22T00:00:29.450Z,0.70
2018-12-22T00:02:58.814Z,0.70
2018-12-22T00:05:28.542Z,0.70
2018-12-22T00:07:58.274Z,0.70
2018-12-22T00:10:27.526Z,0.70
2018-12-22T00:12:56.730Z,0.70
2018-12-22T00:15:26.113Z,0.70
2018-12-22T00:17:55.484Z,0.70
2018-12-22T00:20:25.289Z,0.70
2018-12-22T00:22:54.394Z,0.70
2018-12-22T00:25:23.667Z,0.70
2018-12-22T00:27:56.254Z,0.70
2018-12-22T00:30:25.654Z,0.70
2018-12-22T00:32:54.874Z,0.70
2018-12-22T00:35:24.098Z,0.70
2018-12-22T00:37:54.009Z,0.70
2018-12-22T00:40:23.221Z,0.60
2018-12-22T00:42:52.518Z,0.70
2018-12-22T00:45:22.063Z,0.70
2018-12-22T00:47:52.326Z,0.70
2018-12-22T00:50:21.634Z,0.70
2018-12-22T00:52:51.436Z,0.60
2018-12-22T00:55:20.922Z,0.70
2018-12-22T00:57:50.442Z,0.60
2018-12-22T01:00:19.743Z,0.60
2018-12-22T01:02:50.194Z,0.60
2018-12-22T01:05:20.702Z,0.70
2018-12-22T01:07:49.990Z,0.60
2018-12-22T01:10:19.188Z,0.60
2018-12-22T01:12:48.884Z,0.60
2018-12-22T01:15:18.295Z,0.50
2018-12-22T01:17:47.756Z,0.50
2018-12-22T01:20:16.972Z,0.40
2018-12-22T01:22:46.118Z,0.40
2018-12-22T01:25:15.741Z,0.40
2018-12-22T01:27:45.154Z,0.40
2018-12-22T01:30:14.644Z,0.40
2018-12-22T01:32:43.898Z,0.40
2018-12-22T01:35:13.787Z,0.40
2018-12-22T01:37:43.086Z,0.40
2018-12-22T01:40:12.599Z,0.40
2018-12-22T01:42:41.908Z,0.40
2018-12-22T01:45:11.281Z,0.40
2018-12-22T01:47:40.478Z,0.40
2018-12-22T01:50:10.222Z,0.30
2018-12-22T01:52:39.439Z,0.30
2018-12-22T01:55:08.691Z,0.40
2018-12-22T01:57:37.954Z,0.40
2018-12-22T02:00:09.082Z,0.40
2018-12-22T02:02:38.714Z,0.40
2018-12-22T02:05:08.578Z,0.40
2018-12-22T02:07:38.237Z,0.40
2018-12-22T02:10:07.639Z,0.50
2018-12-22T02:12:36.866Z,0.40
2018-12-22T02:15:06.437Z,0.40
2018-12-22T02:17:35.729Z,0.40
2018-12-22T02:20:05.358Z,0.40
2018-12-22T02:22:34.630Z,0.40
2018-12-22T02:25:04.291Z,0.40
2018-12-22T02:27:33.774Z,0.40
2018-12-22T02:30:02.967Z,0.40
2018-12-22T02:32:32.331Z,0.40
2018-12-22T02:35:01.663Z,0.40
2018-12-22T02:37:31.157Z,0.40
2018-12-22T02:40:00.372Z,0.40
2018-12-22T02:42:29.807Z,0.40
2018-12-22T02:44:59.358Z,0.30
2018-12-22T02:47:28.483Z,0.40
2018-12-22T02:49:57.871Z,0.40
2018-12-22T02:52:27.174Z,0.40
2018-12-22T02:54:56.783Z,0.40
2018-12-22T02:57:26.012Z,0.40
2018-12-22T02:59:55.255Z,0.50
2018-12-22T03:05:34.437Z,0.40
2018-12-22T03:08:03.663Z,0.40
2018-12-22T03:10:32.815Z,0.50
2018-12-22T03:13:02.664Z,0.40
2018-12-22T03:15:31.814Z,0.50
2018-12-22T03:18:00.923Z,0.50
2018-12-22T03:20:30.252Z,0.50
2018-12-22T03:22:59.377Z,0.50
2018-12-22T03:25:28.478Z,0.50
2018-12-22T03:27:57.844Z,0.50
2018-12-22T03:30:26.983Z,0.50
2018-12-22T03:32:56.183Z,0.50
2018-12-22T03:35:25.617Z,0.50
2018-12-22T03:37:54.707Z,0.60
2018-12-22T03:40:23.899Z,0.60
2018-12-22T03:42:53.659Z,0.60
2018-12-22T03:45:22.842Z,0.60
2018-12-22T03:47:52.010Z,0.60
2018-12-22T03:50:21.239Z,0.60
2018-12-22T03:52:50.410Z,0.60
2018-12-22T03:55:19.603Z,0.60
2018-12-22T03:57:49.015Z,0.60
2018-12-22T04:00:18.198Z,0.60
2018-12-22T04:02:47.373Z,0.60
2018-12-22T04:05:16.655Z,0.60
2018-12-22T04:07:46.046Z,0.60
2018-12-22T04:10:15.222Z,0.60
2018-12-22T04:12:44.815Z,0.60
2018-12-22T04:15:14.439Z,0.70
2018-12-22T04:17:43.652Z,0.70
2018-12-22T04:20:13.322Z,0.80
2018-12-22T04:22:42.411Z,0.80
2018-12-22T04:25:11.723Z,0.80
2018-12-22T04:27:41.536Z,0.70
2018-12-22T04:30:10.768Z,0.70
2018-12-22T04:32:39.954Z,0.70
2018-12-22T04:35:09.260Z,0.80
2018-12-22T04:37:38.481Z,0.80
2018-12-22T04:40:07.742Z,0.80
2018-12-22T04:42:37.330Z,0.80
2018-12-22T04:45:06.547Z,0.80
2018-12-22T04:47:36.842Z,0.80
2018-12-22T04:50:06.207Z,0.80
2018-12-22T04:52:35.387Z,0.80
2018-12-22T04:55:05.064Z,0.80
2018-12-22T04:57:34.290Z,0.80
2018-12-22T05:00:03.791Z,0.80
2018-12-22T05:02:33.090Z,0.80
2018-12-22T05:05:02.584Z,0.80
2018-12-22T05:07:32.103Z,0.80
2018-12-22T05:10:01.288Z,0.80
2018-12-22T05:12:31.787Z,0.80
2018-12-22T05:15:01.015Z,0.80
2018-12-22T05:17:30.251Z,0.80
2018-12-22T05:19:59.490Z,0.80
2018-12-22T05:22:28.665Z,0.80
2018-12-22T05:24:58.007Z,0.80
2018-12-22T05:27:27.436Z,0.80
2018-12-22T05:29:56.575Z,0.80
2018-12-22T05:32:26.727Z,0.80
2018-12-22T05:34:55.846Z,0.90
2018-12-22T05:37:25.138Z,0.90
2018-12-22T05:39:54.335Z,0.90
2018-12-22T05:42:23.563Z,0.90
2018-12-22T05:44:52.718Z,0.90
2018-12-22T05:47:21.942Z,0.90
2018-12-22T05:49:51.173Z,0.90
2018-12-22T05:52:20.426Z,0.90
2018-12-22T05:54:49.627Z,0.90
2018-12-22T05:57:18.926Z,1.00
2018-12-22T05:59:49.268Z,1.00
2018-12-22T06:02:18.631Z,1.00
2018-12-22T06:04:48.439Z,1.00
2018-12-22T06:07:17.659Z,1.00
2018-12-22T06:09:46.883Z,0.90
2018-12-22T06:12:16.096Z,1.00
2018-12-22T06:14:45.359Z,1.00
2018-12-22T06:17:14.498Z,1.00
2018-12-22T06:19:44.722Z,1.00
2018-12-22T06:22:13.915Z,1.00
2018-12-22T06:24:43.032Z,1.00
2018-12-22T06:27:12.260Z,1.00
2018-12-22T06:29:41.953Z,1.00
2018-12-22T06:32:11.101Z,1.00
2018-12-22T06:34:40.385Z,1.00
2018-12-22T06:37:09.548Z,1.00
2018-12-22T06:39:38.614Z,1.00
2018-12-22T06:42:07.771Z,1.00
2018-12-22T06:44:37.087Z,1.00
2018-12-22T06:47:06.255Z,1.00
2018-12-22T06:49:35.403Z,1.10
2018-12-22T06:52:04.578Z,1.10
2018-12-22T06:54:33.764Z,1.10
2018-12-22T06:57:03.116Z,1.10
2018-12-22T06:59:32.275Z,1.10
2018-12-22T07:02:01.535Z,1.10
2018-12-22T07:04:31.111Z,1.20
2018-12-22T07:07:00.299Z,1.10
2018-12-22T07:09:29.787Z,1.20
2018-12-22T07:11:58.996Z,1.20
2018-12-22T07:14:28.133Z,1.20
2018-12-22T07:16:57.290Z,1.10
2018-12-22T07:19:26.484Z,1.10
2018-12-22T07:21:55.701Z,1.10
2018-12-22T07:24:24.843Z,1.10
2018-12-22T07:26:54.271Z,1.20
2018-12-22T07:29:23.575Z,1.10
2018-12-22T07:31:52.771Z,1.10
2018-12-22T07:34:22.102Z,1.20
2018-12-22T07:36:51.282Z,1.10
2018-12-22T07:39:20.447Z,1.20
2018-12-22T07:41:49.834Z,1.20
2018-12-22T07:44:19.475Z,1.20
2018-12-22T07:46:48.735Z,1.20
2018-12-22T07:49:18.008Z,1.30
2018-12-22T07:51:47.143Z,1.30
2018-12-22T07:54:16.375Z,1.30
2018-12-22T07:56:45.612Z,1.30
2018-12-22T07:59:14.825Z,1.30
2018-12-22T08:01:43.989Z,1.30
2018-12-22T08:04:13.278Z,1.40
2018-12-22T08:06:42.422Z,1.40
2018-12-22T08:09:11.531Z,1.40
2018-12-22T08:11:40.834Z,1.50
2018-12-22T08:14:10.048Z,1.50
2018-12-22T08:16:39.271Z,1.50
2018-12-22T08:19:08.635Z,1.50
2018-12-22T08:21:37.803Z,1.50
2018-12-22T08:24:07.003Z,1.50
2018-12-22T08:26:36.331Z,1.50
2018-12-22T08:29:05.468Z,1.50
2018-12-22T08:31:34.788Z,1.50
2018-12-22T08:34:04.119Z,1.60
2018-12-22T08:36:33.311Z,1.60
2018-12-22T08:39:02.599Z,1.60
2018-12-22T08:41:31.814Z,1.60
2018-12-22T08:44:01.022Z,1.60
2018-12-22T08:46:30.143Z,1.60
2018-12-22T08:48:59.379Z,1.60
2018-12-22T08:51:28.795Z,1.60
2018-12-22T08:53:57.991Z,1.60
2018-12-22T08:56:27.733Z,1.70
2018-12-22T08:58:56.927Z,1.70
2018-12-22T09:01:26.209Z,1.70
2018-12-22T09:03:56.476Z,1.70
2018-12-22T09:06:25.607Z,1.80
2018-12-22T09:08:55.057Z,1.70
2018-12-22T09:11:24.423Z,1.70
2018-12-22T09:13:53.589Z,1.70
2018-12-22T09:16:22.699Z,1.80
2018-12-22T09:18:52.035Z,1.80
2018-12-22T09:21:21.409Z,1.80
2018-12-22T09:23:50.585Z,1.80
2018-12-22T09:26:19.928Z,1.80
2018-12-22T09:28:49.108Z,1.80
2018-12-22T09:31:19.250Z,1.80
2018-12-22T09:33:48.801Z,1.80
2018-12-22T09:36:19.063Z,1.70
2018-12-22T09:38:48.375Z,1.70
2018-12-22T09:41:17.721Z,1.80
2018-12-22T09:43:46.934Z,1.80
2018-12-22T09:46:16.187Z,1.70
2018-12-22T09:48:45.969Z,1.80
2018-12-22T09:51:16.350Z,1.70
2018-12-22T09:53:45.595Z,1.70
2018-12-22T09:56:15.279Z,1.70
2018-12-22T09:58:44.495Z,1.70
2018-12-22T10:01:13.662Z,1.70
2018-12-22T10:03:42.922Z,1.70
2018-12-22T10:06:12.904Z,1.80
2018-12-22T10:08:42.255Z,1.80
2018-12-22T10:11:11.503Z,1.90
2018-12-22T10:13:40.639Z,1.90
2018-12-22T10:16:09.819Z,1.90
2018-12-22T10:18:40.567Z,1.90
2018-12-22T10:21:09.728Z,1.90
2018-12-22T10:23:38.908Z,1.80
2018-12-22T10:26:08.702Z,1.90
2018-12-22T10:28:37.859Z,1.80
2018-12-22T10:31:07.018Z,1.80
2018-12-22T10:33:36.323Z,1.80
2018-12-22T10:36:05.474Z,1.80
2018-12-22T10:38:34.731Z,1.90
2018-12-22T10:41:04.319Z,1.80
2018-12-22T10:43:33.646Z,1.90
2018-12-22T10:46:02.795Z,1.90
2018-12-22T10:48:32.323Z,1.90
2018-12-22T10:51:01.481Z,1.90
2018-12-22T10:53:30.662Z,2.00
2018-12-22T10:56:00.059Z,2.00
2018-12-22T10:58:29.230Z,2.00
2018-12-22T11:00:58.390Z,2.00
2018-12-22T11:03:27.588Z,2.00
2018-12-22T11:05:56.764Z,2.00
2018-12-22T11:08:25.975Z,2.00
2018-12-22T11:10:55.180Z,2.10
2018-12-22T11:13:24.518Z,2.10
2018-12-22T11:15:53.693Z,2.00
2018-12-22T11:18:23.131Z,2.00
2018-12-22T11:20:52.238Z,2.10
2018-12-22T11:23:21.418Z,2.10
2018-12-22T11:25:50.815Z,2.10
2018-12-22T11:28:19.915Z,2.10
2018-12-22T11:30:49.588Z,2.10
2018-12-22T11:33:18.770Z,2.10
2018-12-22T11:35:47.903Z,2.10
2018-12-22T11:38:17.046Z,2.10
2018-12-22T11:40:46.259Z,2.10
2018-12-22T11:43:15.391Z,2.10
2018-12-22T11:45:44.495Z,2.00
2018-12-22T11:48:40.174Z,2.00
2018-12-22T11:51:09.322Z,2.00
2018-12-22T11:53:38.651Z,1.90
2018-12-22T11:56:08.083Z,1.90
2018-12-22T11:58:38.382Z,1.90
2018-12-22T12:01:07.954Z,1.90
2018-12-22T12:03:38.066Z,1.80
2018-12-22T12:06:07.262Z,1.80
2018-12-22T12:08:36.678Z,1.80
2018-12-22T12:11:05.958Z,1.90
2018-12-22T12:13:35.269Z,1.90
2018-12-22T12:16:19.595Z,1.90
2018-12-22T12:19:33.367Z,1.90
2018-12-22T12:22:02.764Z,1.90
2018-12-22T12:24:32.159Z,1.90
2018-12-22T12:27:01.311Z,1.80
2018-12-22T12:29:30.574Z,1.90
2018-12-22T12:31:59.733Z,1.90
2018-12-22T12:34:29.227Z,1.90
2018-12-22T12:36:58.560Z,1.90
2018-12-22T12:39:27.751Z,1.90
2018-12-22T12:41:57.163Z,1.80
2018-12-22T12:44:26.463Z,1.80
2018-12-22T12:46:55.934Z,1.80
2018-12-22T12:49:25.172Z,1.80
2018-12-22T12:51:54.728Z,1.80
2018-12-22T12:54:23.919Z,1.70
2018-12-22T12:56:55.909Z,1.70
2018-12-22T12:59:25.971Z,1.70
2018-12-22T13:02:00.993Z,1.70
2018-12-22T13:04:26.519Z,1.70
2018-12-22T13:06:56.320Z,1.70
2018-12-22T13:09:25.524Z,1.60
2018-12-22T13:11:56.275Z,1.60
2018-12-22T13:14:25.778Z,1.60
2018-12-22T13:16:55.089Z,1.60
2018-12-22T13:19:24.511Z,1.60
2018-12-22T13:21:54.923Z,1.60
2018-12-22T13:24:24.116Z,1.50
2018-12-22T13:26:53.263Z,1.50
2018-12-22T13:29:22.477Z,1.50
2018-12-22T13:31:51.656Z,1.50
2018-12-22T13:34:20.834Z,1.50
2018-12-22T13:36:50.322Z,1.50
2018-12-22T13:39:23.965Z,1.50
2018-12-22T13:41:53.641Z,1.50
2018-12-22T13:44:22.727Z,1.50
2018-12-22T13:46:51.942Z,1.50
2018-12-22T13:49:21.599Z,1.40
2018-12-22T13:51:50.895Z,1.50
2018-12-22T13:54:23.501Z,1.50
2018-12-22T13:56:52.607Z,1.40
2018-12-22T13:59:21.803Z,1.40
2018-12-22T14:02:07.351Z,1.50
2018-12-22T14:04:37.279Z,1.50
2018-12-22T14:07:09.219Z,1.60
2018-12-22T14:09:38.677Z,1.60
2018-12-22T14:12:07.786Z,1.60
2018-12-22T14:14:39.403Z,1.60
2018-12-22T14:17:16.103Z,1.60
2018-12-22T14:19:53.754Z,1.60
2018-12-22T14:22:22.867Z,1.60
2018-12-22T14:24:53.299Z,1.60
2018-12-22T14:27:22.627Z,1.60
2018-12-22T14:29:51.755Z,1.60
2018-12-22T14:32:26.836Z,1.60
2018-12-22T14:34:57.967Z,1.50
2018-12-22T14:37:27.199Z,1.60
2018-12-22T14:39:56.775Z,1.60
2018-12-22T14:42:25.998Z,1.60
2018-12-22T14:44:55.170Z,1.50
2018-12-22T14:47:24.310Z,1.50
2018-12-22T14:49:53.487Z,1.50
2018-12-22T14:52:22.680Z,1.50
2018-12-22T14:54:51.987Z,1.50
2018-12-22T14:57:21.532Z,1.50
2018-12-22T14:59:50.715Z,1.50
2018-12-22T15:02:19.844Z,1.50
2018-12-22T15:04:49.367Z,1.40
2018-12-22T15:07:18.526Z,1.40
2018-12-22T15:09:48.036Z,1.40
2018-12-22T15:12:17.265Z,1.50
2018-12-22T15:14:46.896Z,1.50
2018-12-22T15:17:16.070Z,1.60
2018-12-22T15:19:45.266Z,1.50
2018-12-22T15:22:14.422Z,1.50
2018-12-22T15:24:43.571Z,1.50
2018-12-22T15:27:12.951Z,1.60
2018-12-22T15:29:42.179Z,1.60
2018-12-22T15:32:11.543Z,1.60
2018-12-22T15:34:40.634Z,1.60
2018-12-22T15:37:09.843Z,1.50
2018-12-22T15:39:39.255Z,1.50
2018-12-22T15:42:08.362Z,1.50
2018-12-22T15:44:37.655Z,1.50
2018-12-22T15:47:06.855Z,1.50
2018-12-22T15:49:36.267Z,1.50
2018-12-22T15:52:05.610Z,1.50
2018-12-22T15:54:34.987Z,1.50
2018-12-22T15:57:04.371Z,1.40
2018-12-22T15:59:33.670Z,1.40
2018-12-22T16:02:03.111Z,1.40
2018-12-22T16:04:32.875Z,1.40
2018-12-22T16:07:02.410Z,1.40
2018-12-22T16:09:31.743Z,1.40
2018-12-22T16:12:01.395Z,1.40
2018-12-22T16:14:30.587Z,1.30
2018-12-22T16:16:59.700Z,1.30
2018-12-22T16:19:29.091Z,1.30
2018-12-22T16:21:58.215Z,1.30
2018-12-22T16:24:27.335Z,1.30
2018-12-22T16:26:56.885Z,1.30
2018-12-22T16:29:30.374Z,1.30
2018-12-22T16:31:59.671Z,1.30
2018-12-22T16:34:28.831Z,1.30
2018-12-22T16:36:58.060Z,1.20
2018-12-22T16:39:27.439Z,1.20
2018-12-22T16:41:56.577Z,1.20
2018-12-22T16:44:25.833Z,1.20
2018-12-22T16:46:55.139Z,1.20
2018-12-22T16:49:24.352Z,1.20
2018-12-22T16:51:54.054Z,1.20
2018-12-22T16:54:23.331Z,1.20
2018-12-22T16:56:52.587Z,1.20
2018-12-22T16:59:21.955Z,1.20
2018-12-22T17:01:55.178Z,1.20
2018-12-22T17:04:24.423Z,1.10
2018-12-22T17:06:53.882Z,1.10
2018-12-22T17:09:23.207Z,1.10
2018-12-22T17:11:52.748Z,1.10
2018-12-22T17:14:21.904Z,1.00
2018-12-22T17:16:51.835Z,1.00
2018-12-22T17:19:21.220Z,0.90
2018-12-22T17:22:03.071Z,0.90
2018-12-22T17:24:39.295Z,0.90
2018-12-22T17:27:08.960Z,0.90
2018-12-22T17:29:38.211Z,0.90
2018-12-22T17:32:07.584Z,0.90
2018-12-22T17:34:37.277Z,0.90
2018-12-22T17:37:06.799Z,1.00
2018-12-22T17:39:36.845Z,1.00
2018-12-22T17:42:08.135Z,1.10
2018-12-22T17:44:37.304Z,1.10
2018-12-22T17:47:06.529Z,1.10
2018-12-22T17:49:37.434Z,1.20
2018-12-22T17:52:06.723Z,1.10
2018-12-22T17:54:42.546Z,1.10
2018-12-22T17:57:11.748Z,1.10
2018-12-22T17:59:40.943Z,1.20
2018-12-22T18:02:10.169Z,1.10
2018-12-22T18:04:39.327Z,1.10
2018-12-22T18:07:08.947Z,1.10
2018-12-22T18:09:38.467Z,1.00
2018-12-22T18:12:07.770Z,1.10
2018-12-22T18:14:37.022Z,1.00
2018-12-22T18:17:07.468Z,1.00
2018-12-22T18:19:36.691Z,1.00
2018-12-22T18:22:06.047Z,1.00
2018-12-22T18:24:35.851Z,1.00
2018-12-22T18:27:05.187Z,1.00
2018-12-22T18:29:35.215Z,1.00
2018-12-22T18:32:05.232Z,1.00
2018-12-22T18:34:34.667Z,1.00
2018-12-22T18:37:04.286Z,0.90
2018-12-22T18:39:34.337Z,1.00
2018-12-22T18:42:03.631Z,1.00
2018-12-22T18:44:32.962Z,1.00
2018-12-22T18:47:02.851Z,1.10
2018-12-22T18:49:33.401Z,1.20
2018-12-22T18:52:02.863Z,1.20
2018-12-22T18:54:32.330Z,1.20
2018-12-22T18:57:01.846Z,1.20
2018-12-22T18:59:31.062Z,1.30
2018-12-22T19:02:00.311Z,1.30
2018-12-22T19:04:29.575Z,1.30
2018-12-22T19:06:58.995Z,1.40
2018-12-22T19:09:31.783Z,1.40
2018-12-22T19:12:03.043Z,1.40
2018-12-22T19:14:32.574Z,1.50
2018-12-22T19:17:02.131Z,1.50
2018-12-22T19:19:31.634Z,1.50
2018-12-22T19:22:01.025Z,1.50
2018-12-22T19:24:30.413Z,1.50
2018-12-22T19:26:59.663Z,1.60
2018-12-22T19:29:29.103Z,1.60
2018-12-22T19:31:58.735Z,1.40
2018-12-22T19:34:28.083Z,1.50
2018-12-22T19:36:57.475Z,1.40
2018-12-22T19:39:26.909Z,1.40
2018-12-22T19:41:56.391Z,1.40
2018-12-22T19:44:26.638Z,1.50
2018-12-22T19:46:55.867Z,1.50
2018-12-22T19:49:25.311Z,1.30
2018-12-22T19:51:54.587Z,1.20
2018-12-22T19:54:24.046Z,1.30
2018-12-22T19:56:53.475Z,1.20
2018-12-22T19:59:22.764Z,1.20
2018-12-22T20:01:51.946Z,1.10
2018-12-22T20:04:21.150Z,1.10
2018-12-22T20:06:50.395Z,1.20
2018-12-22T20:09:19.615Z,1.20
2018-12-22T20:11:49.018Z,1.10
2018-12-22T20:14:18.323Z,1.10
2018-12-22T20:16:47.627Z,1.20
2018-12-22T20:19:17.079Z,1.10
2018-12-22T20:21:46.796Z,1.00
2018-12-22T20:24:16.047Z,1.00
2018-12-22T20:26:45.255Z,1.00
2018-12-22T20:29:14.826Z,1.10
2018-12-22T20:31:44.150Z,1.20
2018-12-22T20:34:13.427Z,1.20
2018-12-22T20:36:42.799Z,1.20
2018-12-22T20:39:12.060Z,1.10
2018-12-22T20:41:41.542Z,1.00
2018-12-22T20:44:10.831Z,1.10
2018-12-22T20:46:40.097Z,1.10
2018-12-22T20:49:09.291Z,1.10
2018-12-22T20:51:40.091Z,1.00
2018-12-22T20:54:09.322Z,1.00
2018-12-22T20:56:38.651Z,1.10
2018-12-22T20:59:08.188Z,1.20
2018-12-22T21:01:37.566Z,1.30
2018-12-22T21:04:06.874Z,1.40
2018-12-22T21:06:36.199Z,1.40
2018-12-22T21:09:07.602Z,1.30
2018-12-22T21:11:36.761Z,1.20
2018-12-22T21:14:06.158Z,1.10
2018-12-22T21:16:35.480Z,1.10
2018-12-22T21:19:04.878Z,1.10
2018-12-22T21:21:34.245Z,1.10
2018-12-22T21:24:03.959Z,1.00
2018-12-22T21:26:33.207Z,0.90
2018-12-22T21:29:03.644Z,1.00
2018-12-22T21:31:32.964Z,1.10
2018-12-22T21:34:02.636Z,1.10
2018-12-22T21:36:32.824Z,1.20
2018-12-22T21:39:03.903Z,1.30
2018-12-22T21:41:33.248Z,1.30
2018-12-22T21:44:03.025Z,1.30
2018-12-22T21:46:32.319Z,1.40
2018-12-22T21:49:03.123Z,1.40
2018-12-22T21:51:32.427Z,1.30
2018-12-22T21:54:01.698Z,1.30
2018-12-22T21:56:31.652Z,1.30
2018-12-22T21:59:00.948Z,1.40
2018-12-22T22:01:30.363Z,1.40
2018-12-22T22:03:59.947Z,1.40
2018-12-22T22:06:29.143Z,1.40
2018-12-22T22:08:58.491Z,1.40
2018-12-22T22:11:27.696Z,1.30
2018-12-22T22:13:57.093Z,1.30
2018-12-22T22:16:26.439Z,1.30
2018-12-22T22:18:55.788Z,1.30
2018-12-22T22:21:24.991Z,1.40
2018-12-22T22:23:54.223Z,1.40
2018-12-22T22:26:24.013Z,1.40
2018-12-22T22:28:53.374Z,1.40
2018-12-22T22:31:22.548Z,1.40
2018-12-22T22:33:51.816Z,1.40
2018-12-22T22:36:20.962Z,1.40
2018-12-22T22:38:50.287Z,1.30
2018-12-22T22:41:19.707Z,1.40
2018-12-22T22:43:49.059Z,1.40
2018-12-22T22:46:18.358Z,1.40
2018-12-22T22:48:47.739Z,1.40
2018-12-22T22:51:17.182Z,1.40
2018-12-22T22:53:46.458Z,1.40
2018-12-22T22:56:15.871Z,1.30
2018-12-22T22:58:45.223Z,1.30
2018-12-22T23:01:14.823Z,1.30
2018-12-22T23:03:44.391Z,1.30
2018-12-22T23:06:13.794Z,1.30
2018-12-22T23:08:43.118Z,1.30
2018-12-22T23:11:12.893Z,1.30
2018-12-22T23:13:42.346Z,1.30
2018-12-22T23:16:11.609Z,1.30
2018-12-22T23:18:41.143Z,1.30
2018-12-22T23:21:10.523Z,1.40
2018-12-22T23:23:39.811Z,1.40
2018-12-22T23:26:09.788Z,1.30
2018-12-22T23:28:39.102Z,1.30
2018-12-22T23:31:09.018Z,1.40
2018-12-22T23:33:38.404Z,1.30
2018-12-22T23:36:09.403Z,1.30
2018-12-22T23:38:38.727Z,1.30
2018-12-22T23:41:08.599Z,1.30
2018-12-22T23:43:37.895Z,1.20
2018-12-22T23:46:07.313Z,1.30
2018-12-22T23:48:37.403Z,1.30
2018-12-22T23:51:06.702Z,1.30
2018-12-22T23:53:36.011Z,1.30
2018-12-22T23:56:05.528Z,1.30
2018-12-22T23:58:34.931Z,1.40
